Terminal Aerodrome Forecast
Issued by NWS

Home | Current Version | Previous Version | Text Only | Print | Product List | Glossary On
Versions: 1 2 3 4 5 6 7 8 9 10 11 12 13
252
FTUS42 KMLB 251121
TAFFPR
TAF
KFPR 251121Z 2512/2612 VRB03KT P6SM SCT250
     FM251300 15008KT P6SM FEW020 SCT250
     FM251700 12012G19KT P6SM VCSH SCT040 SCT250
     FM260200 15004KT P6SM FEW040 SCT250=

USA.gov is the U.S. government's official web portal to all federal, state and local government web resources and services.